Time;durP1;ratioP1;P1;durP2;ratioP2;P2;SDS_P1;SDS_P2;PMS_P1;PMS_P2;Temp;Humidity;BMP_temperature;BMP_pressure;BME280_temperature;BME280_humidity;BME280_pressure;Samples;Min_cycle;Max_cycle;Signal;HPM_P1;HPM_P2
2022/11/03 00:01:38;;;;;;;19.02;9.15;;;;;;;2.35;100.00;100110.27;1717345;81;21527;-59
2022/11/03 00:04:07;;;;;;;14.58;8.03;;;;;;;2.37;100.00;100110.96;1771913;80;21179;-59
2022/11/03 00:06:34;;;;;;;15.60;8.63;;;;;;;2.39;100.00;100118.08;1773180;80;22291;-59
2022/11/03 00:09:04;;;;;;;13.30;7.80;;;;;;;2.40;100.00;100115.37;1771777;80;21026;-58
2022/11/03 00:11:33;;;;;;;12.63;7.80;;;;;;;2.41;100.00;100114.41;1775448;80;21728;-58
2022/11/03 00:14:00;;;;;;;13.53;7.95;;;;;;;2.45;100.00;100121.39;1773393;80;21247;-59
2022/11/03 00:16:28;;;;;;;13.78;7.65;;;;;;;2.52;100.00;100125.05;1771571;80;21063;-58
2022/11/03 00:18:55;;;;;;;16.87;9.18;;;;;;;2.60;100.00;100124.38;1768542;79;21260;-66
2022/11/03 00:21:24;;;;;;;13.95;8.73;;;;;;;2.65;100.00;100127.36;1719498;81;21104;-58
2022/11/03 00:23:51;;;;;;;13.98;7.95;;;;;;;2.66;100.00;100133.67;1717592;81;21058;-59
2022/11/03 00:26:20;;;;;;;16.93;8.90;;;;;;;2.66;100.00;100138.82;1761347;80;21258;-59
2022/11/03 00:28:49;;;;;;;13.00;8.38;;;;;;;2.67;100.00;100131.91;1775094;80;21050;-58
2022/11/03 00:31:22;;;;;;;13.70;8.10;;;;;;;2.68;100.00;100127.90;1771066;80;21562;-58
2022/11/03 00:33:50;;;;;;;15.43;8.28;;;;;;;2.75;100.00;100126.08;1751102;80;21325;-58
2022/11/03 00:36:23;;;;;;;18.50;7.50;;;;;;;2.78;100.00;100124.53;1722738;81;21007;-58
2022/11/03 00:38:50;;;;;;;17.67;9.10;;;;;;;2.78;100.00;100124.53;1721025;81;21528;-59
2022/11/03 00:41:21;;;;;;;13.70;7.65;;;;;;;2.74;100.00;100125.75;1715810;81;20959;-59
2022/11/03 00:43:49;;;;;;;13.43;7.03;;;;;;;2.71;100.00;100132.45;1720981;81;22116;-59
2022/11/03 00:46:17;;;;;;;14.70;7.60;;;;;;;2.66;100.00;100141.39;1771684;80;21105;-59
2022/11/03 00:48:44;;;;;;;12.20;6.92;;;;;;;2.68;100.00;100144.63;1772879;80;21317;-59
2022/11/03 00:51:14;;;;;;;13.60;6.62;;;;;;;2.63;100.00;100140.38;1763927;80;21524;-59
2022/11/03 00:53:49;;;;;;;16.02;7.67;;;;;;;2.61;100.00;100150.00;1772891;80;20974;-59
2022/11/03 00:56:23;;;;;;;13.88;7.00;;;;;;;2.65;100.00;100156.50;1770531;80;21187;-59
2022/11/03 00:58:50;;;;;;;10.53;6.35;;;;;;;2.66;100.00;100150.40;1770129;80;21033;-59
2022/11/03 01:01:21;;;;;;;13.18;7.25;;;;;;;2.67;100.00;100151.21;1773349;80;21018;-59
2022/11/03 01:06:48;;;;;;;12.37;6.95;;;;;;;2.72;100.00;100154.66;1748480;80;21014;-66
2022/11/03 01:09:35;;;;;;;12.23;7.25;;;;;;;2.74;100.00;100148.92;1704642;81;21174;-59
2022/11/03 01:12:14;;;;;;;21.37;12.90;;;;;;;2.74;100.00;100154.88;1767494;80;21670;-62
2022/11/03 01:14:45;;;;;;;22.95;13.90;;;;;;;2.72;100.00;100155.47;1759607;80;21485;-59
2022/11/03 01:17:20;;;;;;;25.68;14.73;;;;;;;2.54;100.00;100158.36;1770979;80;20955;-59
2022/11/03 01:19:47;;;;;;;26.02;13.85;;;;;;;2.31;100.00;100159.06;1769301;80;21026;-60
2022/11/03 01:22:16;;;;;;;21.25;13.38;;;;;;;2.06;100.00;100161.66;1769163;79;21371;-60
2022/11/03 01:24:43;;;;;;;21.00;12.15;;;;;;;1.89;100.00;100167.73;1771410;80;21030;-59
2022/11/03 01:27:14;;;;;;;17.57;9.95;;;;;;;1.73;100.00;100173.01;1770198;80;21054;-59
2022/11/03 01:29:41;;;;;;;14.47;8.78;;;;;;;1.59;100.00;100173.70;1769269;80;20999;-66
2022/11/03 01:32:10;;;;;;;14.45;8.55;;;;;;;1.48;100.00;100176.34;1772791;80;21132;-59
2022/11/03 01:34:38;;;;;;;13.08;7.70;;;;;;;1.47;100.00;100177.26;1770198;80;21157;-59
2022/11/03 01:37:06;;;;;;;13.98;7.35;;;;;;;1.49;100.00;100177.15;1748880;79;21031;-60
2022/11/03 01:39:34;;;;;;;12.28;7.35;;;;;;;1.52;100.00;100177.72;1772156;80;21034;-60
2022/11/03 01:42:02;;;;;;;16.90;9.08;;;;;;;1.55;100.00;100173.58;1771355;80;21563;-59
2022/11/03 01:44:36;;;;;;;16.87;9.80;;;;;;;1.57;100.00;100169.15;1773764;80;21029;-59
2022/11/03 01:47:27;;;;;;;22.73;14.90;;;;;;;1.60;100.00;100174.51;1775024;80;21096;-59
2022/11/03 01:50:05;;;;;;;20.20;12.10;;;;;;;1.47;100.00;100177.26;1773040;80;21603;-59
2022/11/03 01:52:48;;;;;;;24.92;13.70;;;;;;;1.16;100.00;100179.77;1768393;79;21509;-59
2022/11/03 01:55:20;;;;;;;19.87;12.03;;;;;;;1.03;100.00;100184.27;1771509;80;21154;-60
2022/11/03 01:57:51;;;;;;;21.00;12.47;;;;;;;0.88;100.00;100185.03;1739277;80;21925;-59
2022/11/03 02:00:19;;;;;;;19.70;12.15;;;;;;;0.77;100.00;100191.95;1773228;80;21296;-59
2022/11/03 02:02:46;;;;;;;19.87;12.18;;;;;;;0.65;100.00;100189.42;1771285;79;21015;-60
2022/11/03 02:05:14;;;;;;;22.05;12.90;;;;;;;0.56;100.00;100189.31;1773817;80;21090;-59
2022/11/03 02:08:08;;;;;;;24.98;14.68;;;;;;;0.47;100.00;100199.83;1756149;80;21447;-58
2022/11/03 02:10:36;;;;;;;29.63;16.65;;;;;;;0.46;100.00;100199.02;1707876;81;21078;-57
2022/11/03 02:13:08;;;;;;;27.85;15.72;;;;;;;0.31;100.00;100200.68;1771300;80;21216;-58
2022/11/03 02:15:36;;;;;;;24.82;14.90;;;;;;;0.17;100.00;100193.57;1773745;80;20939;-58
2022/11/03 02:18:05;;;;;;;21.90;13.08;;;;;;;0.08;100.00;100198.60;1770972;80;21050;-57
2022/11/03 02:20:32;;;;;;;21.65;13.78;;;;;;;-0.04;100.00;100199.03;1774147;80;21046;-62
2022/11/03 02:23:27;;;;;;;19.40;11.78;;;;;;;-0.07;100.00;100196.73;1761016;80;21290;-57
2022/11/03 02:25:57;;;;;;;19.62;11.55;;;;;;;-0.12;100.00;100191.94;1717932;82;21230;-58
2022/11/03 02:28:28;;;;;;;20.80;11.83;;;;;;;-0.19;100.00;100193.80;1729002;81;21465;-58
2022/11/03 02:31:15;;;;;;;20.05;12.03;;;;;;;-0.20;100.00;100199.86;1714401;81;25172;-58
2022/11/03 02:34:09;;;;;;;19.87;11.10;;;;;;;-0.24;100.00;100204.39;1714176;81;20948;-59
2022/11/03 02:36:54;;;;;;;16.50;10.85;;;;;;;-0.31;100.00;100205.30;1724066;80;21103;-57
2022/11/03 02:39:29;;;;;;;21.77;13.03;;;;;;;-0.34;100.00;100205.56;1711644;81;21254;-59
2022/11/03 02:41:58;;;;;;;22.77;13.10;;;;;;;-0.41;100.00;100205.66;1720698;81;21111;-58
2022/11/03 02:44:26;;;;;;;20.92;12.95;;;;;;;-0.40;100.00;100216.24;1717477;81;21114;-58
2022/11/03 02:46:57;;;;;;;20.88;13.50;;;;;;;-0.42;100.00;100216.81;1717609;82;21786;-58
2022/11/03 02:49:25;;;;;;;19.60;12.35;;;;;;;-0.52;100.00;100217.97;1696999;81;21050;-58
2022/11/03 02:52:00;;;;;;;24.52;14.73;;;;;;;-0.47;100.00;100222.74;1732544;81;21577;-57
2022/11/03 02:54:40;;;;;;;23.20;14.98;;;;;;;-0.56;100.00;100214.47;1771102;79;21061;-59
2022/11/03 02:57:17;;;;;;;24.20;15.13;;;;;;;-0.47;100.00;100207.38;1771025;79;21550;-58
2022/11/03 02:59:51;;;;;;;27.58;14.68;;;;;;;-0.53;100.00;100203.55;1772138;80;21027;-57
2022/11/03 03:02:23;;;;;;;27.25;16.48;;;;;;;-0.57;100.00;100211.54;1771000;80;20887;-58
2022/11/03 03:04:54;;;;;;;27.73;15.03;;;;;;;-0.54;100.00;100216.44;1771273;80;21226;-59
2022/11/03 03:07:28;;;;;;;18.45;12.68;;;;;;;-0.60;100.00;100204.11;1770773;80;21564;-58
2022/11/03 03:10:02;;;;;;;23.98;14.03;;;;;;;-0.61;100.00;100205.83;1771080;80;21504;-57
2022/11/03 03:12:31;;;;;;;26.48;14.47;;;;;;;-0.59;100.00;100201.89;1772295;80;21128;-57
2022/11/03 03:14:58;;;;;;;24.55;15.23;;;;;;;-0.62;100.00;100204.67;1762127;79;21093;-58
2022/11/03 03:17:40;;;;;;;22.02;13.80;;;;;;;-0.63;100.00;100206.89;1771451;80;21138;-58
2022/11/03 03:20:33;;;;;;;25.20;14.45;;;;;;;-0.65;100.00;100209.54;1764553;80;20979;-58
2022/11/03 03:23:05;;;;;;;26.37;13.98;;;;;;;-0.65;100.00;100215.12;1771475;80;21059;-58
2022/11/03 03:25:39;;;;;;;19.95;12.43;;;;;;;-0.63;100.00;100212.01;1770503;79;21567;-58
2022/11/03 03:28:10;;;;;;;25.75;14.07;;;;;;;-0.67;100.00;100205.02;1771993;80;21109;-58
2022/11/03 03:30:38;;;;;;;25.43;13.25;;;;;;;-0.68;100.00;100211.06;1774354;80;22287;-58
2022/11/03 03:33:06;;;;;;;22.45;12.58;;;;;;;-0.67;100.00;100213.16;1770169;80;21030;-58
2022/11/03 03:35:33;;;;;;;19.00;12.00;;;;;;;-0.70;100.00;100209.06;1773421;80;21082;-58
2022/11/03 03:38:15;;;;;;;24.27;13.05;;;;;;;-0.69;100.00;100211.97;1772418;80;21543;-63
2022/11/03 03:40:44;;;;;;;21.97;12.53;;;;;;;-0.69;100.00;100213.25;1773682;80;21013;-59
2022/11/03 03:43:11;;;;;;;19.10;10.50;;;;;;;-0.69;100.00;100210.69;1738298;79;21156;-59
2022/11/03 03:45:38;;;;;;;16.30;10.80;;;;;;;-0.69;100.00;100216.28;1721259;81;21097;-66
2022/11/03 03:48:06;;;;;;;17.25;11.33;;;;;;;-0.59;100.00;100224.93;1709272;81;21007;-59
2022/11/03 03:50:35;;;;;;;15.23;9.90;;;;;;;-0.50;100.00;100222.97;1719447;81;21035;-59
2022/11/03 03:53:04;;;;;;;16.50;10.13;;;;;;;-0.44;100.00;100225.55;1720673;81;21027;-60
2022/11/03 03:55:41;;;;;;;18.10;10.72;;;;;;;-0.39;100.00;100229.39;1715333;81;21253;-59
2022/11/03 03:58:12;;;;;;;18.98;10.68;;;;;;;-0.37;100.00;100223.70;1715249;81;21568;-59
2022/11/03 04:00:39;;;;;;;;;;;;;;;-0.37;100.00;100233.14;1721687;81;21015;-57
2022/11/03 04:03:09;;;;;;;19.70;10.78;;;;;;;-0.41;100.00;100227.42;1720035;81;20135;-58
2022/11/03 04:05:36;;;;;;;18.48;11.10;;;;;;;-0.44;100.00;100234.52;1772336;80;21042;-58
2022/11/03 04:08:04;;;;;;;19.95;11.75;;;;;;;-0.46;100.00;100233.33;1768811;80;21761;-58
2022/11/03 04:10:32;;;;;;;24.35;13.45;;;;;;;-0.48;100.00;100233.92;1768483;80;21539;-58
2022/11/03 04:23:53;;;;;;;18.35;10.18;;;;;;;-0.58;100.00;100247.03;1769666;80;21133;-57
2022/11/03 04:26:23;;;;;;;16.82;10.53;;;;;;;-0.53;100.00;100249.63;1770888;80;20979;-59
2022/11/03 04:28:51;;;;;;;17.50;9.00;;;;;;;-0.47;100.00;100257.31;1746570;80;21563;-66
2022/11/03 04:31:18;;;;;;;18.52;10.05;;;;;;;-0.41;100.00;100257.34;1770472;80;21030;-57
2022/11/03 04:33:46;;;;;;;16.27;9.90;;;;;;;-0.34;100.00;100256.78;1771910;80;21220;-57
2022/11/03 04:36:20;;;;;;;20.00;9.93;;;;;;;-0.26;100.00;100258.78;1743698;80;21077;-58
2022/11/03 04:38:48;;;;;;;18.25;9.30;;;;;;;-0.11;100.00;100254.27;1768890;79;21074;-59
2022/11/03 04:41:23;;;;;;;16.75;8.65;;;;;;;0.01;100.00;100250.78;1771181;80;21019;-57
2022/11/03 04:43:51;;;;;;;16.50;8.78;;;;;;;0.11;100.00;100255.54;1770997;80;21039;-58
2022/11/03 04:46:26;;;;;;;18.50;10.45;;;;;;;0.26;100.00;100255.31;1769631;80;21240;-58
2022/11/03 04:48:54;;;;;;;18.10;9.68;;;;;;;0.43;100.00;100263.83;1770445;80;20966;-64
2022/11/03 04:51:24;;;;;;;18.90;10.30;;;;;;;0.62;100.00;100270.92;1770497;80;20990;-58
2022/11/03 04:54:01;;;;;;;15.95;9.35;;;;;;;0.75;100.00;100270.78;1771368;80;20927;-59
2022/11/03 04:56:28;;;;;;;14.83;9.53;;;;;;;0.87;100.00;100278.80;1770336;80;21682;-65
2022/11/03 04:58:57;;;;;;;15.20;9.58;;;;;;;1.01;100.00;100279.02;1770227;80;21099;-58
2022/11/03 05:01:24;;;;;;;17.75;10.38;;;;;;;1.17;100.00;100278.14;1719949;80;21569;-58
2022/11/03 05:03:53;;;;;;;21.95;13.72;;;;;;;1.33;100.00;100272.62;1770927;79;21003;-58
2022/11/03 05:06:23;;;;;;;17.80;9.95;;;;;;;1.54;100.00;100274.72;1742669;80;21003;-58
2022/11/03 05:08:57;;;;;;;16.37;9.98;;;;;;;1.82;100.00;100281.02;1770156;80;21090;-59
2022/11/03 05:11:39;;;;;;;13.15;8.78;;;;;;;2.11;100.00;100274.73;1770452;80;21128;-58
2022/11/03 05:14:22;;;;;;;16.30;8.60;;;;;;;2.45;100.00;100275.75;1769652;79;21257;-67
2022/11/03 05:16:52;;;;;;;13.40;8.90;;;;;;;2.97;100.00;100276.44;1771898;80;20959;-59
2022/11/03 05:19:30;;;;;;;16.85;10.20;;;;;;;3.71;100.00;100278.45;1748377;80;21014;-58
2022/11/03 05:21:57;;;;;;;14.68;8.75;;;;;;;4.46;100.00;100278.52;1715015;81;21493;-60
2022/11/03 05:24:25;;;;;;;17.20;9.95;;;;;;;5.22;100.00;100275.13;1714740;81;21317;-62
2022/11/03 05:26:55;;;;;;;13.57;8.63;;;;;;;5.97;100.00;100278.64;1763905;80;20950;-59
2022/11/03 05:29:25;;;;;;;15.93;8.83;;;;;;;6.73;100.00;100272.67;1753655;80;21274;-59
2022/11/03 05:31:53;;;;;;;16.47;8.20;;;;;;;7.59;100.00;100268.91;1772030;80;21779;-60
2022/11/03 05:34:28;;;;;;;16.03;9.73;;;;;;;8.43;100.00;100268.41;1769949;79;21561;-61
2022/11/03 05:37:30;;;;;;;16.37;10.80;;;;;;;9.08;100.00;100267.25;1771529;80;21392;-60
2022/11/03 05:40:16;;;;;;;15.80;10.70;;;;;;;9.17;100.00;100275.33;1765062;80;21768;-61
2022/11/03 05:42:44;;;;;;;17.80;12.20;;;;;;;8.92;100.00;100344.86;1768662;80;21784;-59
2022/11/03 05:45:21;;;;;;;17.40;12.17;;;;;;;8.49;100.00;100276.03;1764084;80;21739;-60
2022/11/03 05:47:51;;;;;;;19.17;12.73;;;;;;;8.15;100.00;100279.69;1770896;80;21744;-60
2022/11/03 05:50:23;;;;;;;24.87;18.17;;;;;;;7.92;100.00;100282.66;1751198;80;21742;-60
2022/11/03 05:52:55;;;;;;;18.37;13.20;;;;;;;7.65;100.00;100288.98;1767940;80;21779;-60
2022/11/03 05:55:32;;;;;;;20.45;11.63;;;;;;;7.37;100.00;100297.09;1748135;79;22107;-60
2022/11/03 05:58:26;;;;;;;17.73;12.63;;;;;;;7.11;100.00;100301.59;1769513;80;21033;-60
2022/11/03 06:00:54;;;;;;;15.20;10.23;;;;;;;6.91;100.00;100308.84;1750913;80;21356;-59
2022/11/03 06:03:27;;;;;;;20.03;12.00;;;;;;;6.69;100.00;100294.20;1774233;80;21393;-59
2022/11/03 06:05:55;;;;;;;16.63;10.83;;;;;;;6.53;100.00;100305.31;1714150;80;21180;-60
2022/11/03 06:08:34;;;;;;;16.40;10.90;;;;;;;6.41;100.00;100310.44;1714672;81;20993;-61
2022/11/03 06:11:01;;;;;;;16.33;9.87;;;;;;;6.27;100.00;100313.59;1756793;80;21126;-60
2022/11/03 06:13:36;;;;;;;18.97;10.87;;;;;;;6.10;100.00;100312.70;1751137;79;21250;-60
2022/11/03 06:16:33;;;;;;;22.57;12.53;;;;;;;5.92;100.00;100311.45;1769453;80;21636;-61
2022/11/03 06:19:02;;;;;;;18.40;12.47;;;;;;;5.67;100.00;100307.02;1770729;80;21222;-62
2022/11/03 06:21:31;;;;;;;24.83;15.43;;;;;;;5.38;100.00;100322.30;1739580;79;21198;-62
2022/11/03 06:23:58;;;;;;;25.73;16.80;;;;;;;5.14;100.00;100312.52;1725797;80;21421;-63
2022/11/03 06:26:26;;;;;;;24.92;15.72;;;;;;;4.96;100.00;100312.48;1768758;80;21526;-60
2022/11/03 06:28:53;;;;;;;26.45;17.35;;;;;;;4.82;100.00;100331.08;1771410;80;21219;-61
2022/11/03 06:31:26;;;;;;;23.67;15.10;;;;;;;4.68;100.00;100318.16;1769537;80;21086;-60
2022/11/03 06:33:56;;;;;;;18.77;11.18;;;;;;;4.58;100.00;100314.34;1771083;80;21611;-60
2022/11/03 06:36:33;;;;;;;19.77;11.65;;;;;;;4.58;100.00;100325.13;1770930;80;21967;-61
2022/11/03 06:39:11;;;;;;;19.87;13.20;;;;;;;4.63;100.00;100317.30;1772041;80;21721;-62
2022/11/03 06:41:38;;;;;;;21.30;14.15;;;;;;;4.70;100.00;100318.84;1770681;80;21296;-59
2022/11/03 06:44:25;;;;;;;23.70;14.03;;;;;;;4.72;100.00;100320.78;1771030;80;21096;-59
2022/11/03 06:47:01;;;;;;;25.60;16.62;;;;;;;4.71;100.00;100320.94;1769040;80;21046;-66
2022/11/03 06:49:34;;;;;;;23.57;15.10;;;;;;;4.71;100.00;100320.45;1772211;80;21423;-58
2022/11/03 06:52:21;;;;;;;25.12;15.25;;;;;;;4.72;100.00;100321.27;1772112;80;21166;-59
2022/11/03 06:54:53;;;;;;;25.15;15.60;;;;;;;4.72;100.00;100312.23;1770070;80;20915;-59
2022/11/03 06:57:20;;;;;;;22.22;14.47;;;;;;;4.73;100.00;100323.69;1768923;80;21038;-58
2022/11/03 06:59:50;;;;;;;21.97;13.90;;;;;;;4.77;100.00;100319.05;1771163;80;21010;-59
2022/11/03 07:02:45;;;;;;;24.65;13.22;;;;;;;4.83;100.00;100327.53;1771251;80;21501;-59
2022/11/03 07:05:22;;;;;;;20.95;11.80;;;;;;;4.88;100.00;100320.16;1765485;80;21124;-58
2022/11/03 07:07:52;;;;;;;18.05;11.08;;;;;;;4.93;100.00;100318.45;1770633;80;21128;-63
2022/11/03 07:10:23;;;;;;;18.10;11.48;;;;;;;4.98;100.00;100323.50;1768609;80;21064;-58
2022/11/03 07:12:51;;;;;;;19.95;13.03;;;;;;;5.02;100.00;100323.55;1771905;80;21251;-59
2022/11/03 07:15:36;;;;;;;21.73;12.20;;;;;;;5.06;100.00;100321.00;1769741;80;20974;-58
2022/11/03 07:18:04;;;;;;;20.45;12.23;;;;;;;5.15;100.00;100328.84;1770835;80;21053;-59
2022/11/03 07:20:33;;;;;;;21.20;11.85;;;;;;;5.20;100.00;100319.70;1771465;80;21236;-60
2022/11/03 07:23:00;;;;;;;16.42;11.10;;;;;;;5.31;100.00;100333.70;1769527;80;21045;-58
2022/11/03 07:25:29;;;;;;;15.68;10.98;;;;;;;5.41;100.00;100338.78;1772347;80;21599;-59
2022/11/03 07:27:57;;;;;;;17.12;11.60;;;;;;;5.51;100.00;100343.41;1709223;80;21050;-59
2022/11/03 07:30:32;;;;;;;18.27;11.10;;;;;;;5.56;100.00;100347.66;1745426;80;21447;-60
2022/11/03 07:33:10;;;;;;;20.08;13.20;;;;;;;5.62;100.00;100347.55;1768973;80;21912;-59
2022/11/03 07:35:40;;;;;;;28.85;16.95;;;;;;;5.64;100.00;100353.86;1768449;80;21488;-60
2022/11/03 07:38:18;;;;;;;27.87;16.50;;;;;;;5.66;100.00;100350.66;1770540;80;21030;-61
2022/11/03 07:40:45;;;;;;;21.77;12.25;;;;;;;5.66;100.00;100344.19;1772155;80;21650;-59
2022/11/03 07:43:30;;;;;;;18.25;10.45;;;;;;;5.69;100.00;100346.00;1768170;80;21082;-59
2022/11/03 07:46:00;;;;;;;20.45;12.23;;;;;;;5.75;100.00;100346.68;1755176;80;21236;-59
2022/11/03 07:48:38;;;;;;;17.35;11.55;;;;;;;5.77;100.00;100345.25;1771122;80;21113;-58
2022/11/03 07:51:25;;;;;;;18.92;11.85;;;;;;;5.78;100.00;100354.14;1771381;80;21140;-59
2022/11/03 07:54:05;;;;;;;16.65;11.33;;;;;;;5.79;100.00;100349.30;1772320;80;20991;-59
2022/11/03 07:56:45;;;;;;;18.10;10.75;;;;;;;5.81;100.00;100353.05;1762022;80;21516;-59
2022/11/03 07:59:17;;;;;;;20.70;10.77;;;;;;;5.83;100.00;100350.66;1770203;80;21224;-59
2022/11/03 08:01:51;;;;;;;17.57;11.13;;;;;;;5.85;100.00;100340.95;1772207;80;21194;-58
2022/11/03 08:04:25;;;;;;;19.67;10.80;;;;;;;5.91;100.00;100346.02;1771464;80;21821;-59
2022/11/03 08:06:53;;;;;;;18.47;10.87;;;;;;;5.92;100.00;100342.49;1769705;80;22133;-60
2022/11/03 08:09:21;;;;;;;14.75;9.85;;;;;;;5.97;100.00;100348.02;1770515;80;21370;-60
2022/11/03 08:11:48;;;;;;;17.27;10.58;;;;;;;6.04;100.00;100343.06;1770230;80;21827;-59
2022/11/03 08:14:15;;;;;;;17.20;10.27;;;;;;;6.13;100.00;100345.20;1769211;80;20970;-58
2022/11/03 08:16:43;;;;;;;17.40;10.20;;;;;;;6.19;100.00;100344.61;1769741;80;21243;-63
2022/11/03 08:19:10;;;;;;;18.23;11.90;;;;;;;6.26;100.00;100346.92;1769411;80;21749;-59
2022/11/03 08:21:39;;;;;;;20.07;11.67;;;;;;;6.32;100.00;100341.13;1770635;80;21206;-59
2022/11/03 08:24:06;;;;;;;22.57;12.70;;;;;;;6.38;100.00;100345.70;1769712;80;21434;-58
2022/11/03 08:26:33;;;;;;;29.13;15.13;;;;;;;6.47;100.00;100349.13;1771388;80;21744;-58
2022/11/03 08:29:00;;;;;;;30.17;14.83;;;;;;;6.53;100.00;100349.34;1768837;80;21346;-60
2022/11/03 08:31:29;;;;;;;21.00;11.97;;;;;;;6.58;100.00;100339.80;1770361;80;21632;-61
2022/11/03 08:33:56;;;;;;;33.30;15.93;;;;;;;6.62;100.00;100342.41;1772093;80;20971;-60
2022/11/03 08:36:24;;;;;;;41.27;18.40;;;;;;;6.65;100.00;100342.11;1769657;80;21823;-58
2022/11/03 08:38:52;;;;;;;21.07;12.53;;;;;;;6.71;100.00;100341.98;1770862;80;21525;-65
2022/11/03 08:41:19;;;;;;;22.10;11.17;;;;;;;6.71;100.00;100341.98;1768720;80;21602;-58
2022/11/03 08:43:46;;;;;;;19.73;11.00;;;;;;;6.73;100.00;100333.06;1769917;80;21824;-58
2022/11/03 08:46:14;;;;;;;27.50;14.80;;;;;;;6.77;100.00;100346.03;1769229;80;21214;-61
2022/11/03 08:48:42;;;;;;;18.17;11.17;;;;;;;6.81;100.00;100347.83;1770298;80;21312;-61
2022/11/03 08:51:12;;;;;;;17.03;10.07;;;;;;;6.87;100.00;100345.12;1771901;80;21169;-60
2022/11/03 08:53:41;;;;;;;18.93;11.67;;;;;;;6.93;100.00;100345.77;1771235;80;21283;-61
2022/11/03 08:56:10;;;;;;;18.30;11.10;;;;;;;7.01;100.00;100349.70;1769347;80;21239;-60
2022/11/03 08:58:38;;;;;;;15.90;10.70;;;;;;;7.14;100.00;100344.87;1769910;80;21211;-58
2022/11/03 09:01:06;;;;;;;16.63;10.80;;;;;;;7.24;100.00;100349.44;1770333;80;21802;-58
2022/11/03 09:03:33;;;;;;;20.77;11.67;;;;;;;7.29;100.00;100343.77;1770298;80;22349;-57
2022/11/03 09:06:01;;;;;;;18.63;12.00;;;;;;;7.34;100.00;100337.61;1770043;80;21733;-58
2022/11/03 09:08:29;;;;;;;16.40;10.70;;;;;;;7.43;100.00;100339.26;1771907;80;21254;-58
2022/11/03 09:10:58;;;;;;;18.63;11.93;;;;;;;7.48;100.00;100336.17;1768556;80;21291;-60
2022/11/03 09:13:25;;;;;;;18.73;11.63;;;;;;;7.53;100.00;100337.79;1771113;80;21597;-60
2022/11/03 09:15:52;;;;;;;16.23;10.67;;;;;;;7.59;100.00;100338.45;1771367;79;21198;-59
2022/11/03 09:18:19;;;;;;;19.77;13.43;;;;;;;7.64;100.00;100332.28;1770491;80;22030;-59
2022/11/03 09:20:46;;;;;;;20.73;12.40;;;;;;;7.73;100.00;100332.63;1770011;80;21328;-60
2022/11/03 09:23:13;;;;;;;17.10;11.27;;;;;;;7.78;100.00;100337.33;1768773;80;21249;-61
2022/11/03 09:25:40;;;;;;;18.07;11.70;;;;;;;7.85;100.00;100342.68;1772295;80;21167;-61
2022/11/03 09:28:07;;;;;;;22.93;12.97;;;;;;;7.90;100.00;100338.61;1771037;80;21133;-59
2022/11/03 09:30:36;;;;;;;22.80;12.67;;;;;;;7.97;100.00;100343.47;1771228;80;21284;-59
2022/11/03 09:33:03;;;;;;;23.60;13.80;;;;;;;8.02;100.00;100345.08;1770416;80;21160;-60
2022/11/03 09:35:30;;;;;;;19.63;12.23;;;;;;;8.10;100.00;100344.26;1771291;80;21232;-61
2022/11/03 09:37:57;;;;;;;28.10;15.30;;;;;;;8.18;100.00;100347.33;1770145;80;21839;-59
2022/11/03 09:40:26;;;;;;;28.83;15.20;;;;;;;8.24;100.00;100348.78;1770649;80;21273;-59
2022/11/03 09:42:53;;;;;;;24.40;14.03;;;;;;;8.34;100.00;100353.00;1769287;80;21789;-59
2022/11/03 09:45:20;;;;;;;20.33;12.93;;;;;;;8.34;100.00;100353.00;1771036;80;21398;-60
2022/11/03 09:47:48;;;;;;;22.70;13.73;;;;;;;8.36;100.00;100347.94;1769724;80;21166;-60
2022/11/03 09:50:18;;;;;;;21.57;13.23;;;;;;;8.41;100.00;100344.41;1770684;80;21568;-59
2022/11/03 09:52:46;;;;;;;22.53;14.20;;;;;;;8.46;100.00;100338.71;1772482;80;21407;-59
2022/11/03 09:55:16;;;;;;;24.33;14.80;;;;;;;8.50;100.00;100338.20;1769677;80;21833;-59
2022/11/03 09:57:44;;;;;;;24.60;13.47;;;;;;;8.53;100.00;100337.88;1768471;80;21868;-59
2022/11/03 10:00:20;;;;;;;20.67;12.10;;;;;;;8.55;100.00;100327.80;1747902;80;21722;-59
2022/11/03 10:02:48;;;;;;;22.13;15.57;;;;;;;8.60;100.00;100321.59;1771620;80;21925;-59
2022/11/03 10:05:21;;;;;;;28.27;18.50;;;;;;;8.60;100.00;100321.59;1769379;80;21473;-59
2022/11/03 10:07:48;;;;;;;33.53;19.50;;;;;;;8.62;100.00;100331.34;1749912;80;22171;-60
2022/11/03 10:10:19;;;;;;;27.33;18.50;;;;;;;8.60;100.00;100331.52;1765055;80;21249;-59
2022/11/03 10:12:48;;;;;;;30.60;20.13;;;;;;;8.59;100.00;100326.48;1769745;80;21713;-59
2022/11/03 10:15:18;;;;;;;30.95;21.87;;;;;;;8.58;100.00;100322.27;1769307;80;21865;-67
2022/11/03 10:17:45;;;;;;;30.97;21.63;;;;;;;8.70;100.00;100315.72;1769085;80;21109;-59
2022/11/03 10:20:14;;;;;;;29.97;21.43;;;;;;;8.76;100.00;100309.36;1771574;80;21221;-60
2022/11/03 10:22:43;;;;;;;35.53;22.37;;;;;;;8.76;100.00;100309.36;1773639;80;21966;-59
2022/11/03 10:25:40;;;;;;;36.60;24.90;;;;;;;8.86;100.00;100313.03;1770968;80;21344;-59
2022/11/03 10:28:27;;;;;;;23.60;14.37;;;;;;;9.13;100.00;100310.94;1770303;80;21244;-58
2022/11/03 10:31:00;;;;;;;21.30;11.43;;;;;;;9.13;100.00;100310.94;1768367;80;21890;-58
2022/11/03 10:33:36;;;;;;;19.57;12.77;;;;;;;9.25;100.00;100313.48;1770761;80;21420;-58
2022/11/03 10:36:16;;;;;;;23.37;12.87;;;;;;;9.31;100.00;100312.77;1770132;79;22167;-61
2022/11/03 10:38:44;;;;;;;18.37;11.57;;;;;;;9.45;100.00;100308.61;1747819;80;21663;-58
2022/11/03 10:41:17;;;;;;;18.97;13.17;;;;;;;9.45;100.00;100308.61;1770046;79;21729;-59
2022/11/03 10:44:12;;;;;;;18.47;11.80;;;;;;;9.60;100.00;100315.98;1768753;80;21343;-57
2022/11/03 10:46:41;;;;;;;17.67;10.77;;;;;;;9.60;100.00;100317.77;1771605;80;23118;-57
2022/11/03 10:49:14;;;;;;;16.27;10.80;;;;;;;9.60;100.00;100317.77;1720442;80;21792;-58
2022/11/03 10:51:44;;;;;;;19.87;11.97;;;;;;;9.62;100.00;100311.88;1769246;80;21713;-61
2022/11/03 10:54:14;;;;;;;17.97;10.87;;;;;;;9.63;100.00;100314.83;1724208;80;21696;-60
2022/11/03 10:56:42;;;;;;;17.77;11.63;;;;;;;9.68;100.00;100309.89;1771007;80;27170;-59
2022/11/03 10:59:20;;;;;;;18.50;12.67;;;;;;;9.72;100.00;100313.77;1771051;80;21188;-60
2022/11/03 11:01:47;;;;;;;15.10;10.73;;;;;;;9.77;100.00;100304.92;1770512;80;22175;-60
2022/11/03 11:04:17;;;;;;;22.60;14.00;;;;;;;9.81;100.00;100301.02;1770442;80;21763;-57
2022/11/03 11:06:44;;;;;;;19.80;12.30;;;;;;;9.84;100.00;100299.83;1771343;80;21826;-58
2022/11/03 11:09:14;;;;;;;22.17;11.83;;;;;;;9.85;100.00;100300.97;1770498;80;21717;-57
2022/11/03 11:12:15;;;;;;;19.67;11.90;;;;;;;9.87;100.00;100300.28;1769961;80;21729;-58
2022/11/03 11:14:55;;;;;;;22.13;13.03;;;;;;;9.86;100.00;100297.38;1771301;80;21860;-58
2022/11/03 11:17:45;;;;;;;18.85;11.38;;;;;;;9.90;100.00;100295.23;1771081;80;22026;-57
2022/11/03 11:20:34;;;;;;;21.10;13.97;;;;;;;9.92;100.00;100290.13;1771753;80;22025;-58
2022/11/03 11:23:30;;;;;;;31.50;19.33;;;;;;;9.92;100.00;100291.44;1769488;80;21749;-58
2022/11/03 11:26:31;;;;;;;30.97;19.33;;;;;;;9.90;100.00;100285.61;1769206;80;21652;-67
2022/11/03 11:29:14;;;;;;;25.27;16.05;;;;;;;9.89;100.00;100292.31;1772162;80;21616;-58
2022/11/03 11:31:42;;;;;;;19.50;10.80;;;;;;;9.93;100.00;100292.27;1767838;80;21069;-58
2022/11/03 11:34:22;;;;;;;19.43;11.00;;;;;;;9.94;100.00;100285.57;1770332;80;22250;-57
2022/11/03 11:37:00;;;;;;;20.77;11.30;;;;;;;9.94;100.00;100284.27;1778521;80;21687;-57
2022/11/03 11:39:34;;;;;;;20.53;10.60;;;;;;;9.95;100.00;100279.38;1757678;80;21861;-58
2022/11/03 11:42:16;;;;;;;13.77;8.40;;;;;;;9.89;100.00;100280.09;1715515;81;22480;-57
2022/11/03 11:44:57;;;;;;;17.87;10.07;;;;;;;9.83;100.00;100279.99;1750166;80;21653;-61
2022/11/03 11:47:44;;;;;;;17.70;9.87;;;;;;;9.76;100.00;100279.89;1771899;80;40457;-58